Minneapolis, Minnesota
Traffic Map
Current Weather Conditions
Minneapolis, Minnesota
Few Clouds
Few Clouds
77°
Feels Like: 79°
Wind Chill: 77° Ceiling: Unl
Heat Index: 79° Visibility: 10mi
Dew Point: 64° Wind: 10mph
Humidity: 64% Direction: 150° (SSE)
Pressure: 29.93in Gusts: 0mph
Raw Report DataKMSP 250253Z 15009KT 10SM FEW200 25/18 A2993 RMK AO2 SLP130 T02500178 58002
Traffic Incident Summary
Active as of:
Severity:
Category:
InformationThere was an issue retrieving the traffic information for this location. Please try a different location or try again shortly.
Advertisements
Track Severe Weather on mobile